sensor_id;sensor_type;location;lat;lon;timestamp;P1;durP1;ratioP1;P2;durP2;ratioP2
79130;SDS011;70394;45.194;9.142;2023-08-08T00:00:17;2.28;;;0.90;;
79130;SDS011;70394;45.194;9.142;2023-08-08T00:02:43;2.53;;;1.10;;
79130;SDS011;70394;45.194;9.142;2023-08-08T00:05:09;1.77;;;0.82;;
79130;SDS011;70394;45.194;9.142;2023-08-08T00:07:34;2.22;;;0.95;;
79130;SDS011;70394;45.194;9.142;2023-08-08T00:09:59;2.28;;;0.90;;
79130;SDS011;70394;45.194;9.142;2023-08-08T00:12:25;2.67;;;1.10;;
79130;SDS011;70394;45.194;9.142;2023-08-08T00:14:50;2.72;;;1.15;;
79130;SDS011;70394;45.194;9.142;2023-08-08T00:17:15;2.17;;;1.30;;
79130;SDS011;70394;45.194;9.142;2023-08-08T00:19:41;2.30;;;1.00;;
79130;SDS011;70394;45.194;9.142;2023-08-08T00:22:06;1.83;;;0.90;;
79130;SDS011;70394;45.194;9.142;2023-08-08T00:24:32;2.38;;;1.00;;
79130;SDS011;70394;45.194;9.142;2023-08-08T00:26:57;2.85;;;0.82;;
79130;SDS011;70394;45.194;9.142;2023-08-08T00:29:22;2.90;;;0.85;;
79130;SDS011;70394;45.194;9.142;2023-08-08T00:31:48;3.05;;;1.00;;
79130;SDS011;70394;45.194;9.142;2023-08-08T00:34:13;2.28;;;1.00;;
79130;SDS011;70394;45.194;9.142;2023-08-08T00:36:38;2.70;;;1.00;;
79130;SDS011;70394;45.194;9.142;2023-08-08T00:39:04;2.42;;;0.90;;
79130;SDS011;70394;45.194;9.142;2023-08-08T00:41:29;3.00;;;1.20;;
79130;SDS011;70394;45.194;9.142;2023-08-08T00:43:54;2.35;;;0.98;;
79130;SDS011;70394;45.194;9.142;2023-08-08T00:46:20;1.98;;;0.80;;
79130;SDS011;70394;45.194;9.142;2023-08-08T00:48:47;2.25;;;1.02;;
79130;SDS011;70394;45.194;9.142;2023-08-08T00:51:12;2.10;;;1.10;;
79130;SDS011;70394;45.194;9.142;2023-08-08T00:53:38;2.33;;;0.93;;
79130;SDS011;70394;45.194;9.142;2023-08-08T00:56:04;1.58;;;0.80;;
79130;SDS011;70394;45.194;9.142;2023-08-08T00:58:30;2.50;;;0.90;;
79130;SDS011;70394;45.194;9.142;2023-08-08T01:00:55;2.20;;;1.00;;
79130;SDS011;70394;45.194;9.142;2023-08-08T01:03:24;4.70;;;1.10;;
79130;SDS011;70394;45.194;9.142;2023-08-08T01:05:51;3.28;;;1.88;;
79130;SDS011;70394;45.194;9.142;2023-08-08T01:08:25;2.53;;;1.10;;
79130;SDS011;70394;45.194;9.142;2023-08-08T01:10:56;2.33;;;1.00;;
79130;SDS011;70394;45.194;9.142;2023-08-08T01:13:22;2.55;;;1.00;;
79130;SDS011;70394;45.194;9.142;2023-08-08T01:15:50;2.05;;;0.80;;
79130;SDS011;70394;45.194;9.142;2023-08-08T01:18:18;2.47;;;1.00;;
79130;SDS011;70394;45.194;9.142;2023-08-08T01:20:44;2.35;;;1.10;;
79130;SDS011;70394;45.194;9.142;2023-08-08T01:23:16;2.60;;;1.00;;
79130;SDS011;70394;45.194;9.142;2023-08-08T01:25:48;3.33;;;1.00;;
79130;SDS011;70394;45.194;9.142;2023-08-08T01:28:14;3.10;;;1.20;;
79130;SDS011;70394;45.194;9.142;2023-08-08T01:30:40;2.45;;;0.90;;
79130;SDS011;70394;45.194;9.142;2023-08-08T01:33:05;2.38;;;1.00;;
79130;SDS011;70394;45.194;9.142;2023-08-08T01:35:32;2.75;;;1.20;;
79130;SDS011;70394;45.194;9.142;2023-08-08T01:38:06;3.08;;;1.02;;
79130;SDS011;70394;45.194;9.142;2023-08-08T01:40:36;2.03;;;0.95;;
79130;SDS011;70394;45.194;9.142;2023-08-08T01:43:03;3.35;;;0.90;;
79130;SDS011;70394;45.194;9.142;2023-08-08T01:45:29;2.42;;;1.00;;
79130;SDS011;70394;45.194;9.142;2023-08-08T01:47:55;3.17;;;1.15;;
79130;SDS011;70394;45.194;9.142;2023-08-08T01:50:20;2.90;;;1.13;;
79130;SDS011;70394;45.194;9.142;2023-08-08T01:52:46;3.17;;;1.10;;
79130;SDS011;70394;45.194;9.142;2023-08-08T01:55:12;2.50;;;0.98;;
79130;SDS011;70394;45.194;9.142;2023-08-08T01:57:37;2.90;;;1.10;;
79130;SDS011;70394;45.194;9.142;2023-08-08T02:00:03;2.55;;;1.10;;
79130;SDS011;70394;45.194;9.142;2023-08-08T02:02:29;2.85;;;1.10;;
79130;SDS011;70394;45.194;9.142;2023-08-08T02:04:55;3.03;;;1.10;;
79130;SDS011;70394;45.194;9.142;2023-08-08T02:07:20;2.20;;;1.00;;
79130;SDS011;70394;45.194;9.142;2023-08-08T02:09:45;3.45;;;1.10;;
79130;SDS011;70394;45.194;9.142;2023-08-08T02:12:11;2.92;;;1.00;;
79130;SDS011;70394;45.194;9.142;2023-08-08T02:14:36;2.53;;;1.10;;
79130;SDS011;70394;45.194;9.142;2023-08-08T02:17:02;3.00;;;1.10;;
79130;SDS011;70394;45.194;9.142;2023-08-08T02:19:27;2.45;;;1.00;;
79130;SDS011;70394;45.194;9.142;2023-08-08T02:21:53;2.40;;;1.10;;
79130;SDS011;70394;45.194;9.142;2023-08-08T02:24:18;2.58;;;1.02;;
79130;SDS011;70394;45.194;9.142;2023-08-08T02:26:43;2.50;;;1.10;;
79130;SDS011;70394;45.194;9.142;2023-08-08T02:29:09;3.20;;;1.10;;
79130;SDS011;70394;45.194;9.142;2023-08-08T02:31:34;3.17;;;0.98;;
79130;SDS011;70394;45.194;9.142;2023-08-08T02:33:59;2.45;;;1.10;;
79130;SDS011;70394;45.194;9.142;2023-08-08T02:36:25;3.90;;;1.30;;
79130;SDS011;70394;45.194;9.142;2023-08-08T02:38:50;2.38;;;1.00;;
79130;SDS011;70394;45.194;9.142;2023-08-08T02:41:18;2.85;;;0.90;;
79130;SDS011;70394;45.194;9.142;2023-08-08T02:43:44;2.30;;;0.98;;
79130;SDS011;70394;45.194;9.142;2023-08-08T02:46:10;2.40;;;1.10;;
79130;SDS011;70394;45.194;9.142;2023-08-08T02:48:35;5.38;;;1.30;;
79130;SDS011;70394;45.194;9.142;2023-08-08T02:51:01;2.80;;;1.10;;
79130;SDS011;70394;45.194;9.142;2023-08-08T02:53:26;2.22;;;1.10;;
79130;SDS011;70394;45.194;9.142;2023-08-08T02:55:51;2.55;;;1.20;;
79130;SDS011;70394;45.194;9.142;2023-08-08T02:58:17;3.10;;;1.10;;
79130;SDS011;70394;45.194;9.142;2023-08-08T03:00:42;3.10;;;1.20;;
79130;SDS011;70394;45.194;9.142;2023-08-08T03:03:08;2.80;;;1.20;;
79130;SDS011;70394;45.194;9.142;2023-08-08T03:05:33;3.08;;;1.17;;
79130;SDS011;70394;45.194;9.142;2023-08-08T03:07:59;2.45;;;1.10;;
79130;SDS011;70394;45.194;9.142;2023-08-08T03:10:24;2.53;;;1.02;;
79130;SDS011;70394;45.194;9.142;2023-08-08T03:12:50;2.50;;;1.00;;
79130;SDS011;70394;45.194;9.142;2023-08-08T03:15:15;3.38;;;1.58;;
79130;SDS011;70394;45.194;9.142;2023-08-08T03:17:41;2.60;;;1.30;;
79130;SDS011;70394;45.194;9.142;2023-08-08T03:20:06;2.30;;;1.20;;
79130;SDS011;70394;45.194;9.142;2023-08-08T03:22:32;2.53;;;1.10;;
79130;SDS011;70394;45.194;9.142;2023-08-08T03:24:58;2.10;;;1.00;;
79130;SDS011;70394;45.194;9.142;2023-08-08T03:27:24;2.53;;;1.10;;
79130;SDS011;70394;45.194;9.142;2023-08-08T03:29:50;2.83;;;1.10;;
79130;SDS011;70394;45.194;9.142;2023-08-08T03:32:15;2.05;;;1.05;;
79130;SDS011;70394;45.194;9.142;2023-08-08T03:34:41;2.10;;;0.90;;
79130;SDS011;70394;45.194;9.142;2023-08-08T03:37:06;3.30;;;1.20;;
79130;SDS011;70394;45.194;9.142;2023-08-08T03:39:31;2.00;;;1.00;;
79130;SDS011;70394;45.194;9.142;2023-08-08T03:41:57;2.20;;;1.10;;
79130;SDS011;70394;45.194;9.142;2023-08-08T03:44:22;3.22;;;1.15;;
79130;SDS011;70394;45.194;9.142;2023-08-08T03:46:48;4.22;;;1.10;;
79130;SDS011;70394;45.194;9.142;2023-08-08T03:49:14;2.63;;;1.15;;
79130;SDS011;70394;45.194;9.142;2023-08-08T03:51:40;5.25;;;1.33;;
79130;SDS011;70394;45.194;9.142;2023-08-08T03:54:05;2.70;;;1.10;;
79130;SDS011;70394;45.194;9.142;2023-08-08T03:56:30;2.42;;;1.10;;
79130;SDS011;70394;45.194;9.142;2023-08-08T03:58:57;2.67;;;1.00;;
79130;SDS011;70394;45.194;9.142;2023-08-08T04:01:23;3.03;;;1.33;;
79130;SDS011;70394;45.194;9.142;2023-08-08T04:03:48;2.75;;;0.90;;
79130;SDS011;70394;45.194;9.142;2023-08-08T04:06:13;3.53;;;1.00;;
79130;SDS011;70394;45.194;9.142;2023-08-08T04:08:38;3.17;;;1.10;;
79130;SDS011;70394;45.194;9.142;2023-08-08T04:11:04;2.70;;;1.02;;
79130;SDS011;70394;45.194;9.142;2023-08-08T04:13:29;4.32;;;1.00;;
79130;SDS011;70394;45.194;9.142;2023-08-08T04:15:54;2.22;;;0.90;;
79130;SDS011;70394;45.194;9.142;2023-08-08T04:18:20;2.92;;;1.20;;
79130;SDS011;70394;45.194;9.142;2023-08-08T04:20:45;3.22;;;1.10;;
79130;SDS011;70394;45.194;9.142;2023-08-08T04:23:12;2.42;;;1.10;;
79130;SDS011;70394;45.194;9.142;2023-08-08T04:25:38;3.40;;;1.02;;
79130;SDS011;70394;45.194;9.142;2023-08-08T04:28:03;4.40;;;1.30;;
79130;SDS011;70394;45.194;9.142;2023-08-08T04:30:29;3.75;;;1.10;;
79130;SDS011;70394;45.194;9.142;2023-08-08T04:32:54;4.25;;;1.35;;
79130;SDS011;70394;45.194;9.142;2023-08-08T04:35:19;2.85;;;1.02;;
79130;SDS011;70394;45.194;9.142;2023-08-08T04:37:45;4.65;;;1.35;;
79130;SDS011;70394;45.194;9.142;2023-08-08T04:40:10;2.78;;;1.10;;
79130;SDS011;70394;45.194;9.142;2023-08-08T04:42:36;4.35;;;1.08;;
79130;SDS011;70394;45.194;9.142;2023-08-08T04:45:01;3.92;;;1.15;;
79130;SDS011;70394;45.194;9.142;2023-08-08T04:47:27;2.90;;;1.17;;
79130;SDS011;70394;45.194;9.142;2023-08-08T04:49:53;4.40;;;1.40;;
79130;SDS011;70394;45.194;9.142;2023-08-08T04:52:18;3.35;;;1.13;;
79130;SDS011;70394;45.194;9.142;2023-08-08T04:54:43;2.67;;;1.30;;
79130;SDS011;70394;45.194;9.142;2023-08-08T04:57:09;3.13;;;1.20;;
79130;SDS011;70394;45.194;9.142;2023-08-08T04:59:34;3.53;;;1.10;;
79130;SDS011;70394;45.194;9.142;2023-08-08T05:02:00;2.53;;;1.17;;
79130;SDS011;70394;45.194;9.142;2023-08-08T05:04:25;4.13;;;1.38;;
79130;SDS011;70394;45.194;9.142;2023-08-08T05:06:50;3.33;;;1.35;;
79130;SDS011;70394;45.194;9.142;2023-08-08T05:09:16;3.47;;;1.20;;
79130;SDS011;70394;45.194;9.142;2023-08-08T05:11:41;4.03;;;1.20;;
79130;SDS011;70394;45.194;9.142;2023-08-08T05:14:07;3.55;;;1.20;;
79130;SDS011;70394;45.194;9.142;2023-08-08T05:16:32;2.83;;;1.10;;
79130;SDS011;70394;45.194;9.142;2023-08-08T05:18:57;3.65;;;1.20;;
79130;SDS011;70394;45.194;9.142;2023-08-08T05:21:23;6.28;;;1.65;;
79130;SDS011;70394;45.194;9.142;2023-08-08T05:23:49;5.15;;;1.48;;
79130;SDS011;70394;45.194;9.142;2023-08-08T05:26:14;5.00;;;1.20;;
79130;SDS011;70394;45.194;9.142;2023-08-08T05:28:40;6.63;;;1.25;;
79130;SDS011;70394;45.194;9.142;2023-08-08T05:31:06;2.85;;;1.20;;
79130;SDS011;70394;45.194;9.142;2023-08-08T05:33:32;3.95;;;1.30;;
79130;SDS011;70394;45.194;9.142;2023-08-08T05:35:57;2.70;;;1.20;;
79130;SDS011;70394;45.194;9.142;2023-08-08T05:38:23;3.13;;;1.30;;
79130;SDS011;70394;45.194;9.142;2023-08-08T05:40:49;2.30;;;1.02;;
79130;SDS011;70394;45.194;9.142;2023-08-08T05:43:14;3.10;;;1.30;;
79130;SDS011;70394;45.194;9.142;2023-08-08T05:45:43;4.15;;;1.20;;
79130;SDS011;70394;45.194;9.142;2023-08-08T05:48:09;2.45;;;1.13;;
79130;SDS011;70394;45.194;9.142;2023-08-08T05:50:37;3.03;;;1.20;;
79130;SDS011;70394;45.194;9.142;2023-08-08T05:53:06;3.05;;;1.20;;
79130;SDS011;70394;45.194;9.142;2023-08-08T05:55:31;4.22;;;1.20;;
79130;SDS011;70394;45.194;9.142;2023-08-08T05:57:57;5.30;;;1.50;;
79130;SDS011;70394;45.194;9.142;2023-08-08T06:00:22;2.90;;;1.40;;
79130;SDS011;70394;45.194;9.142;2023-08-08T06:02:48;4.00;;;1.42;;
79130;SDS011;70394;45.194;9.142;2023-08-08T06:05:16;3.38;;;1.20;;
79130;SDS011;70394;45.194;9.142;2023-08-08T06:07:42;2.80;;;1.30;;
79130;SDS011;70394;45.194;9.142;2023-08-08T06:10:08;3.90;;;1.40;;
79130;SDS011;70394;45.194;9.142;2023-08-08T06:12:34;3.00;;;1.10;;
79130;SDS011;70394;45.194;9.142;2023-08-08T06:14:59;8.00;;;1.30;;
79130;SDS011;70394;45.194;9.142;2023-08-08T06:17:25;3.47;;;1.33;;
79130;SDS011;70394;45.194;9.142;2023-08-08T06:19:50;4.50;;;1.23;;
79130;SDS011;70394;45.194;9.142;2023-08-08T06:22:16;4.68;;;1.40;;
79130;SDS011;70394;45.194;9.142;2023-08-08T06:24:42;2.80;;;1.20;;
79130;SDS011;70394;45.194;9.142;2023-08-08T06:27:08;3.58;;;1.23;;
79130;SDS011;70394;45.194;9.142;2023-08-08T06:29:33;4.00;;;1.20;;
79130;SDS011;70394;45.194;9.142;2023-08-08T06:31:58;5.60;;;1.40;;
79130;SDS011;70394;45.194;9.142;2023-08-08T06:34:24;4.72;;;1.60;;
79130;SDS011;70394;45.194;9.142;2023-08-08T06:36:49;3.00;;;1.35;;
79130;SDS011;70394;45.194;9.142;2023-08-08T06:39:15;2.88;;;1.20;;
79130;SDS011;70394;45.194;9.142;2023-08-08T06:41:40;3.20;;;1.30;;
79130;SDS011;70394;45.194;9.142;2023-08-08T06:44:06;3.35;;;1.40;;
79130;SDS011;70394;45.194;9.142;2023-08-08T06:46:32;3.28;;;1.40;;
79130;SDS011;70394;45.194;9.142;2023-08-08T06:48:57;2.05;;;1.10;;
79130;SDS011;70394;45.194;9.142;2023-08-08T06:51:24;4.00;;;1.17;;
79130;SDS011;70394;45.194;9.142;2023-08-08T06:53:50;4.82;;;1.35;;
79130;SDS011;70394;45.194;9.142;2023-08-08T06:56:16;5.88;;;1.30;;
79130;SDS011;70394;45.194;9.142;2023-08-08T06:58:41;3.55;;;1.40;;
79130;SDS011;70394;45.194;9.142;2023-08-08T07:01:06;3.05;;;1.20;;
79130;SDS011;70394;45.194;9.142;2023-08-08T07:03:32;4.65;;;1.58;;
79130;SDS011;70394;45.194;9.142;2023-08-08T07:05:57;3.35;;;1.40;;
79130;SDS011;70394;45.194;9.142;2023-08-08T07:08:22;3.78;;;1.33;;
79130;SDS011;70394;45.194;9.142;2023-08-08T07:10:48;3.80;;;1.33;;
79130;SDS011;70394;45.194;9.142;2023-08-08T07:13:14;3.75;;;1.35;;
79130;SDS011;70394;45.194;9.142;2023-08-08T07:15:40;3.65;;;1.10;;
79130;SDS011;70394;45.194;9.142;2023-08-08T07:18:06;3.97;;;1.33;;
79130;SDS011;70394;45.194;9.142;2023-08-08T07:20:31;3.00;;;1.13;;
79130;SDS011;70394;45.194;9.142;2023-08-08T07:22:57;4.18;;;1.50;;
79130;SDS011;70394;45.194;9.142;2023-08-08T07:25:22;3.33;;;1.23;;
79130;SDS011;70394;45.194;9.142;2023-08-08T07:27:47;3.08;;;1.17;;
79130;SDS011;70394;45.194;9.142;2023-08-08T07:30:13;4.50;;;1.58;;
79130;SDS011;70394;45.194;9.142;2023-08-08T07:32:38;3.25;;;1.48;;
79130;SDS011;70394;45.194;9.142;2023-08-08T07:35:04;3.25;;;1.30;;
79130;SDS011;70394;45.194;9.142;2023-08-08T07:37:31;5.13;;;1.40;;
79130;SDS011;70394;45.194;9.142;2023-08-08T07:39:57;3.60;;;1.30;;
79130;SDS011;70394;45.194;9.142;2023-08-08T07:42:23;3.35;;;1.20;;
79130;SDS011;70394;45.194;9.142;2023-08-08T07:44:48;4.38;;;1.30;;
79130;SDS011;70394;45.194;9.142;2023-08-08T07:47:13;7.47;;;1.80;;
79130;SDS011;70394;45.194;9.142;2023-08-08T07:49:39;4.57;;;1.40;;
79130;SDS011;70394;45.194;9.142;2023-08-08T07:52:04;7.45;;;1.30;;
79130;SDS011;70394;45.194;9.142;2023-08-08T07:54:30;3.63;;;1.20;;
79130;SDS011;70394;45.194;9.142;2023-08-08T07:56:55;4.30;;;1.25;;
79130;SDS011;70394;45.194;9.142;2023-08-08T07:59:21;3.65;;;1.15;;
79130;SDS011;70394;45.194;9.142;2023-08-08T08:01:46;3.05;;;1.10;;
79130;SDS011;70394;45.194;9.142;2023-08-08T08:04:11;4.10;;;1.10;;
79130;SDS011;70394;45.194;9.142;2023-08-08T08:06:37;2.60;;;1.10;;
79130;SDS011;70394;45.194;9.142;2023-08-08T08:09:02;3.58;;;1.20;;
79130;SDS011;70394;45.194;9.142;2023-08-08T08:11:28;4.40;;;1.20;;
79130;SDS011;70394;45.194;9.142;2023-08-08T08:13:54;4.18;;;1.00;;
79130;SDS011;70394;45.194;9.142;2023-08-08T08:16:19;3.33;;;0.90;;
79130;SDS011;70394;45.194;9.142;2023-08-08T08:18:45;2.88;;;1.25;;
79130;SDS011;70394;45.194;9.142;2023-08-08T08:21:12;3.80;;;1.30;;
79130;SDS011;70394;45.194;9.142;2023-08-08T08:23:38;2.58;;;1.10;;
79130;SDS011;70394;45.194;9.142;2023-08-08T08:26:04;2.45;;;1.00;;
79130;SDS011;70394;45.194;9.142;2023-08-08T08:28:29;2.70;;;1.00;;
79130;SDS011;70394;45.194;9.142;2023-08-08T08:30:55;3.35;;;1.10;;
79130;SDS011;70394;45.194;9.142;2023-08-08T08:33:20;3.45;;;1.23;;
79130;SDS011;70394;45.194;9.142;2023-08-08T08:35:46;3.63;;;1.23;;
79130;SDS011;70394;45.194;9.142;2023-08-08T08:38:11;3.97;;;1.10;;
79130;SDS011;70394;45.194;9.142;2023-08-08T08:40:37;3.15;;;1.10;;
79130;SDS011;70394;45.194;9.142;2023-08-08T08:43:05;2.60;;;1.20;;
79130;SDS011;70394;45.194;9.142;2023-08-08T08:45:33;5.00;;;1.10;;
79130;SDS011;70394;45.194;9.142;2023-08-08T08:48:02;3.35;;;1.00;;
79130;SDS011;70394;45.194;9.142;2023-08-08T08:50:28;3.67;;;1.10;;
79130;SDS011;70394;45.194;9.142;2023-08-08T08:52:57;2.33;;;1.00;;
79130;SDS011;70394;45.194;9.142;2023-08-08T08:55:25;3.40;;;1.27;;
79130;SDS011;70394;45.194;9.142;2023-08-08T08:57:50;4.60;;;1.30;;
79130;SDS011;70394;45.194;9.142;2023-08-08T09:00:16;3.10;;;1.00;;
79130;SDS011;70394;45.194;9.142;2023-08-08T09:02:42;5.03;;;1.10;;
79130;SDS011;70394;45.194;9.142;2023-08-08T09:05:08;4.18;;;1.05;;
79130;SDS011;70394;45.194;9.142;2023-08-08T09:07:35;3.45;;;1.00;;
79130;SDS011;70394;45.194;9.142;2023-08-08T09:10:01;3.25;;;1.20;;
79130;SDS011;70394;45.194;9.142;2023-08-08T09:12:28;3.72;;;1.10;;
79130;SDS011;70394;45.194;9.142;2023-08-08T09:14:56;4.25;;;1.20;;
79130;SDS011;70394;45.194;9.142;2023-08-08T09:17:24;2.38;;;0.90;;
79130;SDS011;70394;45.194;9.142;2023-08-08T09:19:52;3.88;;;1.15;;
79130;SDS011;70394;45.194;9.142;2023-08-08T09:22:18;2.45;;;1.00;;
79130;SDS011;70394;45.194;9.142;2023-08-08T09:24:44;2.42;;;0.90;;
79130;SDS011;70394;45.194;9.142;2023-08-08T09:27:11;4.07;;;1.13;;
79130;SDS011;70394;45.194;9.142;2023-08-08T09:29:37;3.20;;;1.10;;
79130;SDS011;70394;45.194;9.142;2023-08-08T09:32:03;4.95;;;1.10;;
79130;SDS011;70394;45.194;9.142;2023-08-08T09:34:32;2.88;;;0.98;;
79130;SDS011;70394;45.194;9.142;2023-08-08T09:36:58;2.25;;;0.95;;
79130;SDS011;70394;45.194;9.142;2023-08-08T09:39:25;2.25;;;0.90;;
79130;SDS011;70394;45.194;9.142;2023-08-08T09:41:51;3.28;;;1.10;;
79130;SDS011;70394;45.194;9.142;2023-08-08T09:44:17;3.70;;;1.20;;
79130;SDS011;70394;45.194;9.142;2023-08-08T09:46:43;2.53;;;0.95;;
79130;SDS011;70394;45.194;9.142;2023-08-08T09:49:10;3.42;;;1.13;;
79130;SDS011;70394;45.194;9.142;2023-08-08T09:51:37;3.15;;;1.20;;
79130;SDS011;70394;45.194;9.142;2023-08-08T09:54:04;2.60;;;1.10;;
79130;SDS011;70394;45.194;9.142;2023-08-08T09:56:32;3.63;;;1.27;;
79130;SDS011;70394;45.194;9.142;2023-08-08T09:58:59;4.93;;;1.33;;
79130;SDS011;70394;45.194;9.142;2023-08-08T10:01:26;3.67;;;1.10;;
79130;SDS011;70394;45.194;9.142;2023-08-08T10:03:52;3.28;;;1.42;;
79130;SDS011;70394;45.194;9.142;2023-08-08T10:06:17;2.40;;;1.27;;
79130;SDS011;70394;45.194;9.142;2023-08-08T10:08:43;3.03;;;1.30;;
79130;SDS011;70394;45.194;9.142;2023-08-08T10:11:09;3.47;;;1.40;;
79130;SDS011;70394;45.194;9.142;2023-08-08T10:13:36;4.03;;;1.45;;
79130;SDS011;70394;45.194;9.142;2023-08-08T10:16:08;3.17;;;1.50;;
79130;SDS011;70394;45.194;9.142;2023-08-08T10:18:34;3.53;;;1.20;;
79130;SDS011;70394;45.194;9.142;2023-08-08T10:20:59;4.38;;;1.40;;
79130;SDS011;70394;45.194;9.142;2023-08-08T10:23:25;3.10;;;1.13;;
79130;SDS011;70394;45.194;9.142;2023-08-08T10:25:51;4.65;;;1.70;;
79130;SDS011;70394;45.194;9.142;2023-08-08T10:28:20;4.35;;;1.67;;
79130;SDS011;70394;45.194;9.142;2023-08-08T10:30:47;5.05;;;1.85;;
79130;SDS011;70394;45.194;9.142;2023-08-08T10:35:50;5.15;;;1.73;;
79130;SDS011;70394;45.194;9.142;2023-08-08T10:38:18;3.47;;;1.80;;
79130;SDS011;70394;45.194;9.142;2023-08-08T10:40:44;5.03;;;1.73;;
79130;SDS011;70394;45.194;9.142;2023-08-08T10:43:11;4.78;;;1.80;;
79130;SDS011;70394;45.194;9.142;2023-08-08T10:45:40;4.93;;;1.52;;
79130;SDS011;70394;45.194;9.142;2023-08-08T10:48:08;4.93;;;2.10;;
79130;SDS011;70394;45.194;9.142;2023-08-08T10:50:37;4.32;;;1.83;;
79130;SDS011;70394;45.194;9.142;2023-08-08T10:53:07;5.50;;;1.88;;
79130;SDS011;70394;45.194;9.142;2023-08-08T10:55:34;4.00;;;1.75;;
79130;SDS011;70394;45.194;9.142;2023-08-08T10:58:04;8.48;;;2.30;;
79130;SDS011;70394;45.194;9.142;2023-08-08T11:00:32;5.05;;;1.92;;
79130;SDS011;70394;45.194;9.142;2023-08-08T11:02:59;3.95;;;1.70;;
79130;SDS011;70394;45.194;9.142;2023-08-08T11:05:27;5.20;;;1.73;;
79130;SDS011;70394;45.194;9.142;2023-08-08T11:07:54;5.05;;;1.58;;
79130;SDS011;70394;45.194;9.142;2023-08-08T11:10:20;3.30;;;1.67;;
79130;SDS011;70394;45.194;9.142;2023-08-08T11:13:00;4.03;;;1.98;;
79130;SDS011;70394;45.194;9.142;2023-08-08T11:15:28;4.68;;;1.80;;
79130;SDS011;70394;45.194;9.142;2023-08-08T11:17:57;4.60;;;1.60;;
79130;SDS011;70394;45.194;9.142;2023-08-08T11:20:23;4.20;;;1.50;;
79130;SDS011;70394;45.194;9.142;2023-08-08T11:22:56;4.72;;;1.40;;
79130;SDS011;70394;45.194;9.142;2023-08-08T11:25:22;5.75;;;1.95;;
79130;SDS011;70394;45.194;9.142;2023-08-08T11:27:54;5.22;;;1.65;;
79130;SDS011;70394;45.194;9.142;2023-08-08T11:30:21;3.80;;;1.50;;
79130;SDS011;70394;45.194;9.142;2023-08-08T11:32:48;2.90;;;1.30;;
79130;SDS011;70394;45.194;9.142;2023-08-08T11:35:20;7.82;;;1.75;;
79130;SDS011;70394;45.194;9.142;2023-08-08T11:37:47;4.07;;;1.50;;
79130;SDS011;70394;45.194;9.142;2023-08-08T11:40:14;3.30;;;1.55;;
79130;SDS011;70394;45.194;9.142;2023-08-08T11:42:41;3.45;;;1.20;;
79130;SDS011;70394;45.194;9.142;2023-08-08T11:45:10;4.25;;;1.50;;
79130;SDS011;70394;45.194;9.142;2023-08-08T11:47:37;2.78;;;1.33;;
79130;SDS011;70394;45.194;9.142;2023-08-08T11:50:06;2.83;;;1.30;;
79130;SDS011;70394;45.194;9.142;2023-08-08T11:52:39;3.00;;;1.10;;
79130;SDS011;70394;45.194;9.142;2023-08-08T11:55:09;7.10;;;1.40;;
79130;SDS011;70394;45.194;9.142;2023-08-08T11:57:35;4.20;;;1.33;;
79130;SDS011;70394;45.194;9.142;2023-08-08T12:00:06;3.00;;;1.10;;
79130;SDS011;70394;45.194;9.142;2023-08-08T12:02:33;2.63;;;1.23;;
79130;SDS011;70394;45.194;9.142;2023-08-08T12:05:08;2.92;;;1.15;;
79130;SDS011;70394;45.194;9.142;2023-08-08T12:07:36;3.55;;;1.23;;
79130;SDS011;70394;45.194;9.142;2023-08-08T12:10:03;5.45;;;1.10;;
79130;SDS011;70394;45.194;9.142;2023-08-08T12:12:31;3.60;;;1.20;;
79130;SDS011;70394;45.194;9.142;2023-08-08T12:15:03;3.40;;;1.00;;
79130;SDS011;70394;45.194;9.142;2023-08-08T12:17:31;3.17;;;1.13;;
79130;SDS011;70394;45.194;9.142;2023-08-08T12:20:00;3.58;;;1.00;;
79130;SDS011;70394;45.194;9.142;2023-08-08T12:22:28;5.80;;;1.27;;
79130;SDS011;70394;45.194;9.142;2023-08-08T12:24:53;3.10;;;0.98;;
79130;SDS011;70394;45.194;9.142;2023-08-08T12:27:18;3.63;;;0.93;;
79130;SDS011;70394;45.194;9.142;2023-08-08T12:29:44;3.35;;;1.13;;
79130;SDS011;70394;45.194;9.142;2023-08-08T12:32:09;4.22;;;1.20;;
79130;SDS011;70394;45.194;9.142;2023-08-08T12:34:35;3.80;;;1.20;;
79130;SDS011;70394;45.194;9.142;2023-08-08T12:37:00;2.50;;;1.13;;
79130;SDS011;70394;45.194;9.142;2023-08-08T12:39:26;3.58;;;1.02;;
79130;SDS011;70394;45.194;9.142;2023-08-08T12:41:52;5.03;;;1.00;;
79130;SDS011;70394;45.194;9.142;2023-08-08T12:44:17;2.80;;;1.13;;
79130;SDS011;70394;45.194;9.142;2023-08-08T12:46:42;3.85;;;1.00;;
79130;SDS011;70394;45.194;9.142;2023-08-08T12:49:08;3.50;;;1.45;;
79130;SDS011;70394;45.194;9.142;2023-08-08T12:51:33;4.20;;;1.10;;
79130;SDS011;70394;45.194;9.142;2023-08-08T12:53:58;3.20;;;1.40;;
79130;SDS011;70394;45.194;9.142;2023-08-08T12:56:24;2.72;;;1.02;;
79130;SDS011;70394;45.194;9.142;2023-08-08T12:58:49;3.70;;;1.00;;
79130;SDS011;70394;45.194;9.142;2023-08-08T13:01:15;2.80;;;1.05;;
79130;SDS011;70394;45.194;9.142;2023-08-08T13:03:40;2.10;;;0.90;;
79130;SDS011;70394;45.194;9.142;2023-08-08T13:06:06;2.20;;;1.10;;
79130;SDS011;70394;45.194;9.142;2023-08-08T13:08:31;2.63;;;1.20;;
79130;SDS011;70394;45.194;9.142;2023-08-08T13:10:57;2.20;;;1.08;;
79130;SDS011;70394;45.194;9.142;2023-08-08T13:13:23;3.47;;;1.02;;
79130;SDS011;70394;45.194;9.142;2023-08-08T13:15:50;3.17;;;1.10;;
79130;SDS011;70394;45.194;9.142;2023-08-08T13:18:16;3.80;;;1.10;;
79130;SDS011;70394;45.194;9.142;2023-08-08T13:20:41;3.10;;;1.17;;
79130;SDS011;70394;45.194;9.142;2023-08-08T13:23:07;1.95;;;1.00;;
79130;SDS011;70394;45.194;9.142;2023-08-08T13:25:33;3.15;;;1.13;;
79130;SDS011;70394;45.194;9.142;2023-08-08T13:27:59;3.50;;;1.00;;
79130;SDS011;70394;45.194;9.142;2023-08-08T13:30:26;2.85;;;1.02;;
79130;SDS011;70394;45.194;9.142;2023-08-08T13:32:51;2.15;;;1.10;;
79130;SDS011;70394;45.194;9.142;2023-08-08T13:35:16;3.45;;;1.13;;
79130;SDS011;70394;45.194;9.142;2023-08-08T13:37:42;2.58;;;1.00;;
79130;SDS011;70394;45.194;9.142;2023-08-08T13:40:07;3.55;;;1.20;;
79130;SDS011;70394;45.194;9.142;2023-08-08T13:42:33;2.88;;;1.10;;
79130;SDS011;70394;45.194;9.142;2023-08-08T13:44:59;2.10;;;1.00;;
79130;SDS011;70394;45.194;9.142;2023-08-08T13:47:24;2.60;;;1.08;;
79130;SDS011;70394;45.194;9.142;2023-08-08T13:49:50;2.70;;;1.20;;
79130;SDS011;70394;45.194;9.142;2023-08-08T13:52:17;2.00;;;0.90;;
79130;SDS011;70394;45.194;9.142;2023-08-08T13:54:42;3.50;;;1.23;;
79130;SDS011;70394;45.194;9.142;2023-08-08T13:57:08;2.72;;;1.00;;
79130;SDS011;70394;45.194;9.142;2023-08-08T13:59:33;3.33;;;1.00;;
79130;SDS011;70394;45.194;9.142;2023-08-08T14:01:58;2.40;;;1.10;;
79130;SDS011;70394;45.194;9.142;2023-08-08T14:04:24;3.40;;;1.20;;
79130;SDS011;70394;45.194;9.142;2023-08-08T14:06:49;2.30;;;1.10;;
79130;SDS011;70394;45.194;9.142;2023-08-08T14:09:14;5.07;;;1.40;;
79130;SDS011;70394;45.194;9.142;2023-08-08T14:11:40;2.95;;;1.10;;
79130;SDS011;70394;45.194;9.142;2023-08-08T14:14:05;3.75;;;1.15;;
79130;SDS011;70394;45.194;9.142;2023-08-08T14:16:31;3.72;;;1.27;;
79130;SDS011;70394;45.194;9.142;2023-08-08T14:18:57;4.63;;;1.35;;
79130;SDS011;70394;45.194;9.142;2023-08-08T14:21:22;3.28;;;1.23;;
79130;SDS011;70394;45.194;9.142;2023-08-08T14:23:48;4.47;;;1.10;;
79130;SDS011;70394;45.194;9.142;2023-08-08T14:26:13;2.85;;;1.05;;
79130;SDS011;70394;45.194;9.142;2023-08-08T14:28:39;2.72;;;1.15;;
79130;SDS011;70394;45.194;9.142;2023-08-08T14:31:04;3.00;;;1.10;;
79130;SDS011;70394;45.194;9.142;2023-08-08T14:33:31;2.60;;;1.10;;
79130;SDS011;70394;45.194;9.142;2023-08-08T14:35:57;2.58;;;1.20;;
79130;SDS011;70394;45.194;9.142;2023-08-08T14:38:23;3.20;;;1.10;;
79130;SDS011;70394;45.194;9.142;2023-08-08T14:40:49;3.20;;;1.10;;
79130;SDS011;70394;45.194;9.142;2023-08-08T14:43:15;2.40;;;0.90;;